Time;durP1;ratioP1;P1;durP2;ratioP2;P2;SDS_P1;SDS_P2;PMS_P1;PMS_P2;Temp;Humidity;BMP_temperature;BMP_pressure;BME280_temperature;BME280_humidity;BME280_pressure;Samples;Min_cycle;Max_cycle;Signal;HPM_P1;HPM_P2
2023/03/08 00:00:07;;;;;;;31.13;26.43;;;;;;;-1.28;100.00;99946.06;4973558;28;21763;-77
2023/03/08 00:02:32;;;;;;;35.23;27.40;;;;;;;-1.29;100.00;99942.59;4973787;28;21767;-77
2023/03/08 00:04:58;;;;;;;35.97;28.93;;;;;;;-1.28;100.00;99943.41;4949718;28;20622;-77
2023/03/08 00:07:23;;;;;;;35.93;29.20;;;;;;;-1.27;100.00;99945.09;4970068;28;20184;-77
2023/03/08 00:09:49;;;;;;;37.30;31.20;;;;;;;-1.27;100.00;99940.59;4973454;28;20046;-80
2023/03/08 00:12:18;;;;;;;39.00;31.47;;;;;;;-1.26;100.00;99936.13;4973957;28;20050;-81
2023/03/08 00:14:43;;;;;;;37.97;33.00;;;;;;;-1.27;100.00;99935.28;4973464;28;20465;-80
2023/03/08 00:17:09;;;;;;;39.93;34.57;;;;;;;-1.25;100.00;99920.03;4973918;28;20289;-81
2023/03/08 00:19:34;;;;;;;42.17;34.30;;;;;;;-1.27;100.00;99929.97;4971962;28;20038;-80
2023/03/08 00:21:59;;;;;;;38.80;33.67;;;;;;;-1.25;100.00;99933.31;4973610;28;20549;-81
2023/03/08 00:24:25;;;;;;;41.83;35.17;;;;;;;-1.25;100.00;99930.66;4974104;28;20505;-81
2023/03/08 00:26:50;;;;;;;41.73;36.80;;;;;;;-1.24;100.00;99929.69;4973176;28;20482;-81
2023/03/08 00:29:16;;;;;;;41.17;35.93;;;;;;;-1.22;100.00;99922.38;4973866;28;20049;-81
2023/03/08 00:31:41;;;;;;;44.40;37.83;;;;;;;-1.24;100.00;99927.03;4973633;28;20049;-81
2023/03/08 00:34:06;;;;;;;42.13;37.23;;;;;;;-1.20;100.00;99933.69;4970952;28;20049;-81
2023/03/08 00:36:32;;;;;;;46.70;38.40;;;;;;;-1.19;100.00;99930.00;4949913;28;21579;-81
2023/03/08 00:38:57;;;;;;;46.13;41.13;;;;;;;-1.14;100.00;99929.56;4970854;28;20092;-81
2023/03/08 00:41:22;;;;;;;50.40;44.40;;;;;;;-1.06;100.00;99926.09;4973500;28;20117;-81
2023/03/08 00:43:48;;;;;;;52.40;45.03;;;;;;;-1.06;100.00;99926.09;4971934;28;20046;-81
2023/03/08 00:46:14;;;;;;;51.80;46.17;;;;;;;-1.04;100.00;99924.94;4949808;28;20126;-81
2023/03/08 00:48:40;;;;;;;55.23;46.70;;;;;;;-1.02;100.00;99922.97;4973703;28;20447;-81
2023/03/08 00:51:05;;;;;;;57.67;50.33;;;;;;;-0.98;100.00;99925.31;4973507;28;20034;-80
2023/03/08 00:53:31;;;;;;;58.40;49.70;;;;;;;-0.95;100.00;99927.63;4970358;28;20666;-81
2023/03/08 00:55:59;;;;;;;55.93;49.40;;;;;;;-0.94;100.00;99922.19;4933459;28;20039;-81
2023/03/08 00:58:27;;;;;;;57.87;50.47;;;;;;;-0.92;100.00;99916.69;4958921;28;20046;-81
2023/03/08 01:00:53;;;;;;;55.17;48.50;;;;;;;-0.89;100.00;99919.84;4965576;28;20333;-80
2023/03/08 01:03:20;;;;;;;55.90;49.90;;;;;;;-0.81;100.00;99912.91;4973619;28;20301;-81
2023/03/08 01:05:48;;;;;;;56.40;49.53;;;;;;;-0.82;100.00;99906.75;4976591;28;21956;-81
2023/03/08 01:08:15;;;;;;;58.63;50.33;;;;;;;-0.81;100.00;99910.25;4976728;28;20349;-81
2023/03/08 01:10:56;;;;;;;57.47;49.77;;;;;;;-0.80;100.00;99915.41;4953142;28;20293;-81
2023/03/08 01:13:23;;;;;;;54.00;48.20;;;;;;;-0.78;100.00;99910.75;4976627;28;20300;-77
2023/03/08 01:15:48;;;;;;;52.30;46.57;;;;;;;-0.79;100.00;99906.44;4976564;28;20297;-77
2023/03/08 01:18:14;;;;;;;54.23;48.27;;;;;;;-0.78;100.00;99891.31;4976388;28;20813;-77
2023/03/08 01:20:39;;;;;;;57.03;50.23;;;;;;;-0.77;100.00;99888.47;4976412;28;20096;-77
2023/03/08 01:23:04;;;;;;;55.37;49.37;;;;;;;-0.78;100.00;99893.97;4968130;28;20050;-77
2023/03/08 01:25:30;;;;;;;54.80;48.37;;;;;;;-0.76;100.00;99881.31;4968663;28;20164;-77
2023/03/08 01:27:55;;;;;;;55.23;48.07;;;;;;;-0.74;100.00;99874.03;4976013;28;20050;-77
2023/03/08 01:30:21;;;;;;;55.10;48.90;;;;;;;-0.73;100.00;99878.38;4958814;28;20137;-77
2023/03/08 01:32:46;;;;;;;55.67;49.43;;;;;;;-0.72;100.00;99874.69;4976027;28;21569;-77
2023/03/08 01:35:12;;;;;;;57.90;50.53;;;;;;;-0.71;100.00;99876.34;4975992;28;20057;-77
2023/03/08 01:37:37;;;;;;;54.17;48.00;;;;;;;-0.71;100.00;99865.72;4975509;28;20042;-77
2023/03/08 01:40:04;;;;;;;62.70;52.50;;;;;;;-0.71;100.00;99855.06;4976012;28;20089;-77
2023/03/08 01:42:30;;;;;;;60.97;51.13;;;;;;;-0.70;100.00;99851.44;4976126;28;20078;-77
2023/03/08 01:45:04;;;;;;;65.20;54.63;;;;;;;-0.68;100.00;99858.25;4975591;28;20328;-77
2023/03/08 01:47:32;;;;;;;61.13;52.38;;;;;;;-0.66;100.00;99855.44;4956861;28;20339;-77
2023/03/08 01:50:09;;;;;;;61.13;52.37;;;;;;;-0.65;100.00;99853.59;4955682;28;20746;-81
2023/03/08 01:52:48;;;;;;;64.87;53.30;;;;;;;-0.65;100.00;99843.78;4975821;28;20289;-81
2023/03/08 01:55:15;;;;;;;66.50;54.30;;;;;;;-0.63;100.00;99840.97;4976345;28;20311;-81
2023/03/08 01:57:45;;;;;;;70.10;55.10;;;;;;;-0.63;100.00;99841.78;4961494;28;20388;-80
2023/03/08 02:00:15;;;;;;;72.00;54.60;;;;;;;-0.58;100.00;99839.47;4958584;28;20289;-81
2023/03/08 02:02:48;;;;;;;72.33;55.20;;;;;;;-0.54;100.00;99838.16;4976155;28;20288;-81
2023/03/08 02:05:13;;;;;;;75.90;55.30;;;;;;;-0.53;100.00;99841.63;4975956;28;20784;-81
2023/03/08 02:07:39;;;;;;;74.03;56.07;;;;;;;-0.52;100.00;99837.97;4951870;28;20361;-81
2023/03/08 02:10:05;;;;;;;77.90;56.97;;;;;;;-0.52;100.00;99836.16;4975866;28;20054;-81
2023/03/08 02:12:31;;;;;;;75.77;56.30;;;;;;;-0.50;100.00;99836.00;4951499;28;20050;-81
2023/03/08 02:14:57;;;;;;;77.47;54.43;;;;;;;-0.49;100.00;99834.16;4973742;28;20093;-81
2023/03/08 02:17:22;;;;;;;81.03;55.67;;;;;;;-0.47;100.00;99816.22;4950526;28;20030;-81
2023/03/08 02:19:58;;;;;;;78.93;55.93;;;;;;;-0.45;100.00;99817.72;4975434;28;20320;-81
2023/03/08 02:22:24;;;;;;;85.10;56.53;;;;;;;-0.44;100.00;99810.56;4975733;28;20129;-81
2023/03/08 02:24:49;;;;;;;86.93;58.10;;;;;;;-0.43;100.00;99801.59;4967174;28;20302;-81
2023/03/08 02:27:25;;;;;;;83.87;56.23;;;;;;;-0.42;100.00;99801.41;4951731;28;20552;-81
2023/03/08 02:29:51;;;;;;;87.47;57.33;;;;;;;-0.38;100.00;99791.25;4961495;28;20046;-81
2023/03/08 02:32:16;;;;;;;90.17;58.37;;;;;;;-0.38;100.00;99793.91;4975402;28;20307;-81
2023/03/08 02:34:42;;;;;;;90.33;58.33;;;;;;;-0.40;100.00;99790.59;4972321;28;20046;-81
2023/03/08 02:37:07;;;;;;;88.90;56.27;;;;;;;-0.37;100.00;99791.09;4975896;28;20105;-81
2023/03/08 02:39:33;;;;;;;89.87;57.97;;;;;;;-0.34;100.00;99787.25;4975889;28;20070;-81
2023/03/08 02:41:58;;;;;;;86.67;56.07;;;;;;;-0.29;100.00;99784.94;4951845;28;20046;-81
2023/03/08 02:44:23;;;;;;;89.37;57.20;;;;;;;-0.28;100.00;99783.13;4975185;28;20073;-81
2023/03/08 02:46:50;;;;;;;93.83;58.23;;;;;;;-0.27;100.00;99777.63;4950772;28;20656;-81
2023/03/08 02:49:15;;;;;;;92.33;57.77;;;;;;;-0.26;100.00;99763.31;4974678;28;20402;-81
2023/03/08 02:51:40;;;;;;;87.80;57.00;;;;;;;-0.24;100.00;99771.13;4972407;28;20325;-81
2023/03/08 02:54:06;;;;;;;85.20;56.47;;;;;;;-0.25;100.00;99770.28;4960739;28;20096;-81
2023/03/08 02:56:31;;;;;;;84.20;55.43;;;;;;;-0.24;100.00;99771.94;4951031;28;20121;-81
2023/03/08 02:58:56;;;;;;;88.40;56.70;;;;;;;-0.23;100.00;99762.97;4952639;28;20137;-77
2023/03/08 03:01:22;;;;;;;84.77;56.33;;;;;;;-0.21;100.00;99765.47;4955390;28;20494;-77
2023/03/08 03:03:47;;;;;;;89.30;57.50;;;;;;;-0.23;100.00;99773.63;4974060;28;20143;-77
2023/03/08 03:06:15;;;;;;;91.30;58.20;;;;;;;-0.19;100.00;99774.94;4934609;28;20121;-77
2023/03/08 03:08:41;;;;;;;86.33;57.33;;;;;;;-0.17;100.00;99775.59;4974255;28;20053;-77
2023/03/08 03:11:21;;;;;;;88.47;57.00;;;;;;;-0.17;100.00;99767.59;4974238;28;20380;-77
2023/03/08 03:13:47;;;;;;;86.10;54.83;;;;;;;-0.12;100.00;99752.97;4974228;28;20117;-77
2023/03/08 03:16:14;;;;;;;83.97;54.97;;;;;;;-0.12;100.00;99758.28;4973964;28;20289;-77
2023/03/08 03:18:40;;;;;;;86.03;55.13;;;;;;;-0.14;100.00;99744.31;4974002;28;20282;-77
2023/03/08 03:21:08;;;;;;;82.27;54.80;;;;;;;-0.12;100.00;99742.31;4950008;28;20300;-77
2023/03/08 03:23:34;;;;;;;84.57;54.60;;;;;;;-0.11;100.00;99750.16;4973874;28;20030;-77
2023/03/08 03:26:08;;;;;;;83.90;54.87;;;;;;;-0.07;100.00;99742.63;4974119;28;20643;-77
2023/03/08 03:28:34;;;;;;;81.93;53.63;;;;;;;-0.07;100.00;99739.97;4973606;28;20049;-77
2023/03/08 03:30:59;;;;;;;77.60;51.97;;;;;;;-0.06;100.00;99737.13;4973806;28;20289;-77
2023/03/08 03:33:25;;;;;;;77.57;51.87;;;;;;;-0.06;100.00;99738.97;4973863;28;20030;-77
2023/03/08 03:35:50;;;;;;;79.17;53.87;;;;;;;-0.07;100.00;99732.84;4949986;28;20045;-77
2023/03/08 03:38:16;;;;;;;76.93;53.30;;;;;;;-0.08;100.00;99717.84;4973702;28;20390;-77
2023/03/08 03:40:41;;;;;;;75.93;51.83;;;;;;;-0.08;100.00;99706.34;4973768;28;20042;-77
2023/03/08 03:43:06;;;;;;;77.57;51.73;;;;;;;-0.12;100.00;99703.22;4949711;28;20088;-77
2023/03/08 03:45:32;;;;;;;70.33;50.63;;;;;;;-0.14;100.00;99699.06;4956339;28;20052;-77
2023/03/08 03:47:57;;;;;;;79.13;51.27;;;;;;;-0.19;100.00;99700.41;4973365;28;20041;-77
2023/03/08 03:50:23;;;;;;;69.93;51.13;;;;;;;-0.17;100.00;99693.06;4932514;28;20536;-77
2023/03/08 03:52:48;;;;;;;70.67;50.40;;;;;;;-0.18;100.00;99694.09;4973555;28;20669;-81
2023/03/08 03:55:13;;;;;;;71.27;50.40;;;;;;;-0.20;100.00;99698.72;4955469;28;20039;-81
2023/03/08 03:57:39;;;;;;;67.37;49.90;;;;;;;-0.17;100.00;99693.06;4954852;28;20042;-81
2023/03/08 04:00:06;;;;;;;69.50;50.07;;;;;;;-0.17;100.00;99703.72;4973914;28;20042;-81
2023/03/08 04:02:31;;;;;;;67.13;49.87;;;;;;;-0.15;100.00;99689.41;4973640;28;20050;-81
2023/03/08 04:04:56;;;;;;;64.47;48.90;;;;;;;-0.16;100.00;99688.59;4973905;28;20297;-81
2023/03/08 04:07:22;;;;;;;64.73;49.40;;;;;;;-0.17;100.00;99690.41;4973536;28;20186;-81
2023/03/08 04:09:47;;;;;;;76.93;52.50;;;;;;;-0.21;100.00;99691.75;4974039;28;20042;-81
2023/03/08 04:12:13;;;;;;;69.83;49.90;;;;;;;-0.18;100.00;99683.44;4973530;28;20046;-81
2023/03/08 04:14:39;;;;;;;70.87;50.30;;;;;;;-0.19;100.00;99678.25;4973622;28;20141;-81
2023/03/08 04:17:05;;;;;;;71.30;50.83;;;;;;;-0.19;100.00;99675.59;4951002;28;20300;-81
2023/03/08 04:19:31;;;;;;;72.27;50.80;;;;;;;-0.20;100.00;99663.31;4973652;28;20047;-81
2023/03/08 04:21:56;;;;;;;77.87;52.87;;;;;;;-0.21;100.00;99664.28;4973333;28;20297;-81
2023/03/08 04:24:21;;;;;;;72.30;50.33;;;;;;;-0.23;100.00;99658.28;4973374;28;20096;-81
2023/03/08 04:26:47;;;;;;;71.23;48.90;;;;;;;-0.23;100.00;99650.31;4973953;28;20038;-81
2023/03/08 04:29:12;;;;;;;70.50;48.90;;;;;;;-0.25;100.00;99652.31;4950112;28;20487;-81
2023/03/08 04:31:38;;;;;;;64.10;47.03;;;;;;;-0.25;100.00;99647.81;4973655;28;20125;-81
2023/03/08 04:34:03;;;;;;;63.00;47.60;;;;;;;-0.26;100.00;99640.00;4974093;28;20098;-81
2023/03/08 04:36:29;;;;;;;63.47;45.93;;;;;;;-0.26;100.00;99635.53;4973260;28;20050;-81
2023/03/08 04:38:55;;;;;;;58.50;44.50;;;;;;;-0.28;100.00;99634.03;4974127;28;20121;-81
2023/03/08 04:41:20;;;;;;;58.33;44.20;;;;;;;-0.28;100.00;99631.38;4977923;28;20085;-81
2023/03/08 04:43:51;;;;;;;56.40;43.07;;;;;;;-0.29;100.00;99625.22;4952923;28;20053;-81
2023/03/08 04:46:18;;;;;;;56.50;44.07;;;;;;;-0.29;100.00;99622.56;4977570;28;20042;-81
2023/03/08 04:48:44;;;;;;;54.83;42.73;;;;;;;-0.30;100.00;99618.25;4969715;28;20871;-81
2023/03/08 04:51:11;;;;;;;56.27;42.63;;;;;;;-0.30;100.00;99615.59;4977774;28;20379;-81
2023/03/08 04:53:38;;;;;;;53.90;42.07;;;;;;;-0.32;100.00;99617.56;4977606;28;20384;-81
2023/03/08 04:56:04;;;;;;;52.43;40.83;;;;;;;-0.30;100.00;99598.78;4977899;28;20316;-81
2023/03/08 04:58:30;;;;;;;53.17;41.83;;;;;;;-0.32;100.00;99598.94;4946554;28;20864;-81
2023/03/08 05:00:56;;;;;;;53.57;41.37;;;;;;;-0.30;100.00;99598.78;4977375;28;20294;-81
2023/03/08 05:03:21;;;;;;;52.87;41.27;;;;;;;-0.30;100.00;99596.97;4977257;28;20046;-81
2023/03/08 05:05:54;;;;;;;53.20;39.97;;;;;;;-0.29;100.00;99593.28;4976902;28;20046;-81
2023/03/08 05:08:21;;;;;;;51.17;39.60;;;;;;;-0.29;100.00;99582.63;4977127;28;20042;-81
2023/03/08 05:10:58;;;;;;;50.60;39.27;;;;;;;-0.30;100.00;99570.34;4976909;28;20369;-81
2023/03/08 05:13:31;;;;;;;51.00;39.97;;;;;;;-0.28;100.00;99578.16;4976344;28;20292;-81
2023/03/08 05:15:56;;;;;;;52.20;40.90;;;;;;;-0.26;100.00;99571.66;4976523;28;20300;-81
2023/03/08 05:18:22;;;;;;;51.53;39.37;;;;;;;-0.24;100.00;99568.81;4957584;28;21794;-81
2023/03/08 05:20:58;;;;;;;52.97;41.20;;;;;;;-0.24;100.00;99569.63;4953379;28;20049;-81
2023/03/08 05:23:26;;;;;;;53.80;40.47;;;;;;;-0.24;100.00;99566.97;4962182;28;20043;-81
2023/03/08 05:25:53;;;;;;;52.53;40.90;;;;;;;-0.24;100.00;99561.66;4957621;28;20376;-81
2023/03/08 05:28:19;;;;;;;54.67;40.97;;;;;;;-0.25;100.00;99554.66;4976477;28;20297;-77
2023/03/08 05:30:44;;;;;;;54.17;41.17;;;;;;;-0.25;100.00;99544.00;4976456;28;20352;-77
2023/03/08 05:33:10;;;;;;;55.33;43.17;;;;;;;-0.26;100.00;99545.03;4975953;28;20784;-77
2023/03/08 05:35:35;;;;;;;54.93;42.53;;;;;;;-0.26;100.00;99545.03;4975973;28;20049;-78
2023/03/08 05:38:00;;;;;;;54.47;41.23;;;;;;;-0.25;100.00;99535.19;4952283;28;20038;-81
2023/03/08 05:40:26;;;;;;;56.30;41.83;;;;;;;-0.25;100.00;99529.88;4969153;28;20042;-81
2023/03/08 05:42:53;;;;;;;60.63;42.70;;;;;;;-0.26;100.00;99523.75;4976938;28;20133;-81
2023/03/08 05:45:18;;;;;;;54.50;41.13;;;;;;;-0.26;100.00;99521.06;4952522;28;20391;-81
2023/03/08 05:47:44;;;;;;;54.23;41.23;;;;;;;-0.24;100.00;99521.72;4975928;28;20305;-81
2023/03/08 05:50:11;;;;;;;55.03;42.13;;;;;;;-0.24;100.00;99505.75;4976226;28;20039;-81
2023/03/08 05:52:36;;;;;;;55.30;41.23;;;;;;;-0.26;100.00;99502.44;4976385;28;21753;-81
2023/03/08 05:55:02;;;;;;;54.77;41.30;;;;;;;-0.25;100.00;99501.41;4976512;28;20385;-81
2023/03/08 05:57:27;;;;;;;53.10;40.63;;;;;;;-0.27;100.00;99492.78;4953225;28;20070;-77
2023/03/08 05:59:52;;;;;;;53.87;39.47;;;;;;;-0.27;100.00;99487.47;4975688;28;20037;-77
2023/03/08 06:02:18;;;;;;;50.93;39.10;;;;;;;-0.26;100.00;99485.63;4975404;28;20857;-77
2023/03/08 06:04:43;;;;;;;52.37;38.60;;;;;;;-0.28;100.00;99483.13;4975453;28;20537;-77
2023/03/08 06:07:08;;;;;;;51.37;39.10;;;;;;;-0.29;100.00;99476.16;4950938;28;20052;-77
2023/03/08 06:09:34;;;;;;;50.70;37.87;;;;;;;-0.29;100.00;99476.16;4951130;28;20046;-77
2023/03/08 06:12:00;;;;;;;50.37;37.90;;;;;;;-0.29;100.00;99470.00;4975641;28;20930;-77
2023/03/08 06:14:26;;;;;;;48.43;37.87;;;;;;;-0.32;100.00;99471.19;4966867;28;20400;-77
2023/03/08 06:16:51;;;;;;;48.87;37.00;;;;;;;-0.33;100.00;99466.84;4975163;28;20537;-77
2023/03/08 06:19:16;;;;;;;46.80;36.30;;;;;;;-0.32;100.00;99468.53;4975199;28;20042;-77
2023/03/08 06:21:43;;;;;;;47.00;35.97;;;;;;;-0.34;100.00;99473.19;4951463;28;20618;-81
2023/03/08 06:24:08;;;;;;;47.77;36.33;;;;;;;-0.36;100.00;99470.69;4975389;28;20477;-81
2023/03/08 06:26:33;;;;;;;48.17;36.40;;;;;;;-0.37;100.00;99461.06;4944848;28;20380;-81
2023/03/08 06:28:59;;;;;;;47.23;35.37;;;;;;;-0.37;100.00;99474.38;4975697;28;20042;-81
2023/03/08 06:31:24;;;;;;;43.07;33.83;;;;;;;-0.39;100.00;99470.22;4975665;28;20172;-77
2023/03/08 06:33:50;;;;;;;41.83;32.50;;;;;;;-0.41;100.00;99472.22;4975097;28;20045;-77
2023/03/08 06:36:17;;;;;;;42.03;31.90;;;;;;;-0.42;100.00;99467.91;4975165;28;20047;-77
2023/03/08 06:38:43;;;;;;;41.53;30.63;;;;;;;-0.45;100.00;99466.44;4955799;28;20061;-77
2023/03/08 06:41:10;;;;;;;34.63;26.60;;;;;;;-0.48;100.00;99465.94;4975171;28;20300;-77
2023/03/08 06:43:36;;;;;;;35.37;28.03;;;;;;;-0.52;100.00;99457.47;4974743;28;20046;-77
2023/03/08 06:46:07;;;;;;;34.10;26.17;;;;;;;-0.52;100.00;99454.81;4974528;28;20407;-77
2023/03/08 06:48:33;;;;;;;33.07;25.17;;;;;;;-0.53;100.00;99448.69;4974771;28;20125;-77
2023/03/08 06:50:59;;;;;;;35.70;25.53;;;;;;;-0.55;100.00;99445.34;4951086;28;20293;-77
2023/03/08 06:53:24;;;;;;;34.40;26.00;;;;;;;-0.57;100.00;99458.00;4950995;28;20329;-77
2023/03/08 06:55:49;;;;;;;34.83;25.43;;;;;;;-0.57;100.00;99455.34;4951611;28;20794;-81
2023/03/08 06:58:15;;;;;;;32.40;24.93;;;;;;;-0.61;100.00;99462.03;4974551;28;21477;-82
2023/03/08 07:00:40;;;;;;;28.63;21.07;;;;;;;-0.62;100.00;99460.34;4975421;28;20105;-81
2023/03/08 07:03:05;;;;;;;27.37;20.50;;;;;;;-0.64;100.00;99457.06;4974178;28;20038;-81
2023/03/08 07:05:31;;;;;;;25.83;19.20;;;;;;;-0.72;100.00;99457.91;4974868;28;20187;-82
2023/03/08 07:07:57;;;;;;;24.63;17.03;;;;;;;-0.71;100.00;99466.72;4975084;28;20049;-82
2023/03/08 07:10:22;;;;;;;25.93;17.63;;;;;;;-0.72;100.00;99455.25;4951285;28;20469;-82
2023/03/08 07:12:50;;;;;;;24.80;17.30;;;;;;;-0.75;100.00;99460.91;4974926;28;20053;-82
2023/03/08 07:15:18;;;;;;;25.20;18.10;;;;;;;-0.77;100.00;99462.09;4974882;28;20066;-82
2023/03/08 07:17:48;;;;;;;25.77;17.27;;;;;;;-0.78;100.00;99457.78;4975374;28;20297;-82
2023/03/08 07:20:16;;;;;;;25.27;18.13;;;;;;;-0.79;100.00;99454.28;4951511;28;21922;-83
2023/03/08 07:22:43;;;;;;;24.53;18.03;;;;;;;-0.79;100.00;99440.16;4951255;28;20293;-82
2023/03/08 07:25:10;;;;;;;45.20;20.90;;;;;;;-0.81;100.00;99434.19;4974326;28;20285;-77
2023/03/08 07:27:36;;;;;;;41.27;18.93;;;;;;;-0.81;100.00;99440.31;4955141;28;20297;-77
2023/03/08 07:30:01;;;;;;;24.63;17.47;;;;;;;-0.81;100.00;99435.00;4974074;28;20313;-78
2023/03/08 07:32:27;;;;;;;21.17;15.80;;;;;;;-0.81;100.00;99423.53;4974027;28;20104;-77
2023/03/08 07:34:54;;;;;;;22.37;15.73;;;;;;;-0.83;100.00;99434.34;4973525;28;20058;-78
2023/03/08 07:37:19;;;;;;;23.57;16.10;;;;;;;-0.83;100.00;99428.19;4974292;28;20292;-82
2023/03/08 07:39:45;;;;;;;24.40;16.27;;;;;;;-0.83;100.00;99420.22;4975268;28;20388;-82
2023/03/08 07:42:10;;;;;;;25.13;17.10;;;;;;;-0.87;100.00;99423.22;4974532;28;20120;-82
2023/03/08 07:44:38;;;;;;;24.07;17.17;;;;;;;-0.85;100.00;99421.22;4950756;28;20038;-82
2023/03/08 07:47:05;;;;;;;22.73;16.17;;;;;;;-0.83;100.00;99417.56;4951184;28;20100;-82
2023/03/08 07:49:31;;;;;;;22.97;15.53;;;;;;;-0.85;100.00;99415.06;4974005;28;20317;-82
2023/03/08 07:51:56;;;;;;;23.67;16.60;;;;;;;-0.80;100.00;99411.88;4975023;28;20300;-83
2023/03/08 07:54:22;;;;;;;24.47;17.00;;;;;;;-0.83;100.00;99418.38;4974801;28;20528;-82
2023/03/08 07:56:47;;;;;;;21.73;15.43;;;;;;;-0.80;100.00;99403.91;4938298;28;20828;-83
2023/03/08 07:59:13;;;;;;;24.40;17.13;;;;;;;-0.83;100.00;99405.06;4973677;28;20062;-83
2023/03/08 08:01:38;;;;;;;25.87;17.00;;;;;;;-0.81;100.00;99404.94;4974253;28;20042;-83
2023/03/08 08:04:04;;;;;;;26.07;18.80;;;;;;;-0.85;100.00;99396.47;4950175;28;20069;-82
2023/03/08 08:06:29;;;;;;;26.17;18.90;;;;;;;-0.82;100.00;99405.94;4974020;28;20057;-82
2023/03/08 08:08:55;;;;;;;19.13;13.67;;;;;;;-0.86;100.00;99400.97;4974888;28;20042;-82
2023/03/08 08:11:21;;;;;;;20.20;14.60;;;;;;;-0.87;100.00;99393.97;4974127;28;20638;-83
2023/03/08 08:13:47;;;;;;;20.17;13.47;;;;;;;-0.86;100.00;99392.97;4974419;28;20388;-82
2023/03/08 08:16:14;;;;;;;20.13;14.67;;;;;;;-0.87;100.00;99383.34;4973607;28;20297;-83
2023/03/08 08:18:39;;;;;;;22.57;16.43;;;;;;;-0.87;100.00;99386.00;4973962;28;20040;-83
2023/03/08 08:21:09;;;;;;;22.70;16.67;;;;;;;-0.88;100.00;99379.03;4949853;28;20677;-78
2023/03/08 08:23:35;;;;;;;23.47;18.00;;;;;;;-0.87;100.00;99380.69;4973583;28;20038;-79
2023/03/08 08:26:24;;;;;;;24.43;17.43;;;;;;;-0.88;100.00;99375.53;4974213;28;20330;-83
2023/03/08 08:28:52;;;;;;;21.10;15.57;;;;;;;-0.87;100.00;99375.38;4973647;28;20797;-83
2023/03/08 08:31:21;;;;;;;21.37;16.00;;;;;;;-0.87;100.00;99371.84;4970722;28;20293;-82
2023/03/08 08:33:47;;;;;;;21.40;16.00;;;;;;;-0.90;100.00;99366.91;4973779;28;20725;-78
2023/03/08 08:36:17;;;;;;;22.60;16.57;;;;;;;-0.91;100.00;99371.41;4973950;28;20800;-82
2023/03/08 08:38:44;;;;;;;21.17;15.97;;;;;;;-0.88;100.00;99364.91;4972899;28;20312;-78
2023/03/08 08:41:11;;;;;;;22.63;16.90;;;;;;;-0.93;100.00;99349.44;4970309;28;20643;-78
2023/03/08 08:43:37;;;;;;;22.03;15.90;;;;;;;-0.92;100.00;99344.97;4964757;28;21778;-78
2023/03/08 08:46:04;;;;;;;21.40;15.47;;;;;;;-0.95;100.00;99345.31;4949189;28;20819;-78
2023/03/08 08:48:32;;;;;;;22.40;16.83;;;;;;;-0.93;100.00;99345.97;4973146;28;20039;-78
2023/03/08 08:50:57;;;;;;;21.60;16.43;;;;;;;-0.96;100.00;99344.50;4973072;28;20839;-78
2023/03/08 08:53:23;;;;;;;21.27;17.07;;;;;;;-0.95;100.00;99354.13;4971361;28;20293;-78
2023/03/08 08:55:48;;;;;;;19.33;14.33;;;;;;;-0.95;100.00;99343.50;4962487;28;20135;-83
2023/03/08 08:58:13;;;;;;;20.73;13.50;;;;;;;-0.91;100.00;99349.28;4969721;28;20042;-84
2023/03/08 09:00:39;;;;;;;17.37;12.17;;;;;;;-0.93;100.00;99352.13;4967532;28;20038;-79
2023/03/08 09:03:05;;;;;;;18.10;14.43;;;;;;;-0.93;100.00;99359.28;4968001;28;20038;-78
2023/03/08 09:05:32;;;;;;;16.43;11.17;;;;;;;-0.90;100.00;99358.91;4963128;28;20101;-77
2023/03/08 09:07:59;;;;;;;16.83;11.77;;;;;;;-0.94;100.00;99361.13;4969425;28;21333;-78
2023/03/08 09:10:27;;;;;;;14.13;10.70;;;;;;;-0.93;100.00;99357.44;4969630;28;20304;-78
2023/03/08 09:12:52;;;;;;;18.13;12.87;;;;;;;-0.93;100.00;99367.25;4972977;28;20324;-83
2023/03/08 09:15:18;;;;;;;18.67;12.97;;;;;;;-0.91;100.00;99359.91;4986257;28;20304;-83
2023/03/08 09:17:43;;;;;;;18.67;13.80;;;;;;;-0.90;100.00;99349.13;4978191;28;20066;-77
2023/03/08 09:20:10;;;;;;;19.20;14.43;;;;;;;-0.92;100.00;99348.47;4971552;28;20038;-83
2023/03/08 09:22:36;;;;;;;20.87;14.40;;;;;;;-0.90;100.00;99321.69;4986645;28;20045;-82
2023/03/08 09:25:02;;;;;;;20.20;15.07;;;;;;;-0.89;100.00;99310.88;4986965;28;20293;-83
2023/03/08 09:27:28;;;;;;;23.60;18.03;;;;;;;-0.91;100.00;99310.25;4987552;28;20773;-82
2023/03/08 09:29:53;;;;;;;22.50;18.03;;;;;;;-0.88;100.00;99301.91;4986807;28;20296;-82
2023/03/08 09:32:18;;;;;;;23.73;18.40;;;;;;;-0.86;100.00;99296.41;4979087;28;20062;-78
2023/03/08 09:34:44;;;;;;;24.93;20.10;;;;;;;-0.83;100.00;99292.56;4972408;28;20506;-77
2023/03/08 09:37:12;;;;;;;23.83;18.80;;;;;;;-0.80;100.00;99294.88;4973305;28;20042;-78
2023/03/08 09:39:39;;;;;;;26.20;21.70;;;;;;;-0.76;100.00;99294.34;4972656;28;20045;-77
2023/03/08 09:42:17;;;;;;;27.13;22.37;;;;;;;-0.75;100.00;99285.38;4973065;28;20341;-78
2023/03/08 09:45:06;;;;;;;29.43;26.07;;;;;;;-0.71;100.00;99280.50;4972397;28;20311;-78
2023/03/08 09:48:08;;;;;;;29.67;23.93;;;;;;;-0.70;100.00;99285.66;4971700;28;20907;-82
2023/03/08 09:50:56;;;;;;;34.63;26.10;;;;;;;-0.71;100.00;99269.88;4977938;28;20657;-82
2023/03/08 09:53:25;;;;;;;33.27;27.87;;;;;;;-0.61;100.00;99270.47;4981074;28;20297;-82
2023/03/08 09:55:55;;;;;;;37.43;31.37;;;;;;;-0.53;100.00;99261.59;4980705;28;20289;-81
2023/03/08 09:58:31;;;;;;;38.27;31.87;;;;;;;-0.46;100.00;99273.19;4980369;28;20289;-81
2023/03/08 10:01:05;;;;;;;37.23;30.70;;;;;;;-0.44;100.00;99286.31;4981427;28;20681;-81
2023/03/08 10:03:36;;;;;;;35.53;29.20;;;;;;;-0.40;100.00;99263.66;4976616;28;20293;-82
2023/03/08 10:06:20;;;;;;;37.27;30.20;;;;;;;-0.36;100.00;99248.97;4970272;28;20311;-78
2023/03/08 10:08:56;;;;;;;36.77;31.13;;;;;;;-0.23;100.00;99249.19;4972274;28;20381;-78
2023/03/08 10:11:32;;;;;;;36.47;30.57;;;;;;;-0.22;100.00;99248.19;4971707;28;20289;-78
2023/03/08 10:14:05;;;;;;;35.37;29.60;;;;;;;-0.16;100.00;99249.31;4971775;28;20303;-78
2023/03/08 10:16:35;;;;;;;36.17;30.80;;;;;;;-0.10;100.00;99253.06;4977836;28;20304;-81
2023/03/08 10:19:32;;;;;;;35.37;30.57;;;;;;;0.07;100.00;99257.22;4980796;28;20296;-81
2023/03/08 10:22:07;;;;;;;35.03;30.03;;;;;;;0.09;100.00;99263.19;4975310;28;20289;-81
2023/03/08 10:24:47;;;;;;;32.63;28.70;;;;;;;0.16;100.00;99274.78;4981676;28;20293;-81
2023/03/08 10:27:31;;;;;;;34.67;29.87;;;;;;;0.23;100.00;99274.03;4981841;28;20494;-81
2023/03/08 10:29:59;;;;;;;32.60;29.10;;;;;;;0.19;100.00;99267.41;4981278;28;20285;-81
2023/03/08 10:32:25;;;;;;;31.60;27.53;;;;;;;0.26;100.00;99261.19;4983200;28;20300;-81
2023/03/08 10:34:51;;;;;;;29.60;26.20;;;;;;;0.28;100.00;99239.69;4982168;28;20293;-81
2023/03/08 10:37:21;;;;;;;29.83;26.43;;;;;;;0.26;100.00;99242.53;4980195;28;21102;-81
2023/03/08 10:39:53;;;;;;;37.13;33.40;;;;;;;0.26;100.00;99241.69;4983796;28;20046;-81
2023/03/08 10:42:22;;;;;;;34.80;31.30;;;;;;;0.27;100.00;99240.69;4981780;28;20784;-81
2023/03/08 10:45:13;;;;;;;33.47;30.07;;;;;;;0.38;100.00;99237.56;4981190;28;20777;-81
2023/03/08 10:47:39;;;;;;;29.90;26.77;;;;;;;0.20;100.00;99223.78;4981049;28;20301;-81
2023/03/08 10:50:19;;;;;;;29.10;26.00;;;;;;;0.30;100.00;99232.31;4980676;28;20048;-81
2023/03/08 10:52:46;;;;;;;28.40;25.47;;;;;;;0.25;100.00;99232.88;4979936;28;20300;-81
2023/03/08 10:55:16;;;;;;;28.43;25.53;;;;;;;0.17;100.00;99231.13;4981181;28;20308;-82
2023/03/08 10:57:50;;;;;;;25.40;22.70;;;;;;;0.31;100.00;99221.50;4976335;28;20065;-81
2023/03/08 11:00:23;;;;;;;30.63;27.73;;;;;;;0.34;100.00;99207.00;4981869;28;20034;-81
2023/03/08 11:02:49;;;;;;;23.23;20.33;;;;;;;0.39;100.00;99220.56;4981022;28;21332;-81
2023/03/08 11:05:19;;;;;;;22.03;18.53;;;;;;;0.37;100.00;99235.91;4980120;28;20388;-81
2023/03/08 11:07:56;;;;;;;21.80;19.17;;;;;;;0.41;100.00;99239.00;4982790;28;20517;-81
2023/03/08 11:10:24;;;;;;;21.90;19.50;;;;;;;0.42;100.00;99236.19;4983449;28;20292;-81